sensor_id;sensor_type;location;lat;lon;timestamp;P1;durP1;ratioP1;P2;durP2;ratioP2
17347;SDS011;8791;50.876;4.342;2023-05-16T00:01:58;11.77;;;2.10;;
17347;SDS011;8791;50.876;4.342;2023-05-16T00:04:26;21.00;;;2.87;;
17347;SDS011;8791;50.876;4.342;2023-05-16T00:06:54;22.20;;;2.63;;
17347;SDS011;8791;50.876;4.342;2023-05-16T00:09:21;12.27;;;2.60;;
17347;SDS011;8791;50.876;4.342;2023-05-16T00:11:48;14.57;;;2.43;;
17347;SDS011;8791;50.876;4.342;2023-05-16T00:14:15;20.00;;;2.40;;
17347;SDS011;8791;50.876;4.342;2023-05-16T00:16:43;10.10;;;2.40;;
17347;SDS011;8791;50.876;4.342;2023-05-16T00:19:11;12.83;;;2.70;;
17347;SDS011;8791;50.876;4.342;2023-05-16T00:21:38;15.03;;;2.93;;
17347;SDS011;8791;50.876;4.342;2023-05-16T00:24:06;15.73;;;2.50;;
17347;SDS011;8791;50.876;4.342;2023-05-16T00:26:33;18.67;;;2.60;;
17347;SDS011;8791;50.876;4.342;2023-05-16T00:29:00;17.83;;;2.33;;
17347;SDS011;8791;50.876;4.342;2023-05-16T00:31:27;17.67;;;2.50;;
17347;SDS011;8791;50.876;4.342;2023-05-16T00:33:54;15.43;;;2.43;;
17347;SDS011;8791;50.876;4.342;2023-05-16T00:36:21;23.47;;;2.47;;
17347;SDS011;8791;50.876;4.342;2023-05-16T00:38:48;19.20;;;3.00;;
17347;SDS011;8791;50.876;4.342;2023-05-16T00:41:16;19.33;;;2.93;;
17347;SDS011;8791;50.876;4.342;2023-05-16T00:43:43;21.87;;;3.50;;
17347;SDS011;8791;50.876;4.342;2023-05-16T00:46:10;20.70;;;2.70;;
17347;SDS011;8791;50.876;4.342;2023-05-16T00:48:37;19.33;;;2.53;;
17347;SDS011;8791;50.876;4.342;2023-05-16T00:51:04;17.50;;;2.60;;
17347;SDS011;8791;50.876;4.342;2023-05-16T00:53:33;17.70;;;3.37;;
17347;SDS011;8791;50.876;4.342;2023-05-16T00:56:01;23.77;;;2.80;;
17347;SDS011;8791;50.876;4.342;2023-05-16T00:58:30;11.33;;;2.30;;
17347;SDS011;8791;50.876;4.342;2023-05-16T01:00:58;23.67;;;2.23;;
17347;SDS011;8791;50.876;4.342;2023-05-16T01:03:26;18.13;;;2.90;;
17347;SDS011;8791;50.876;4.342;2023-05-16T01:05:53;15.87;;;3.10;;
17347;SDS011;8791;50.876;4.342;2023-05-16T01:08:20;17.80;;;2.33;;
17347;SDS011;8791;50.876;4.342;2023-05-16T01:10:49;14.87;;;2.67;;
17347;SDS011;8791;50.876;4.342;2023-05-16T01:13:26;14.20;;;2.50;;
17347;SDS011;8791;50.876;4.342;2023-05-16T01:16:03;16.00;;;2.23;;
17347;SDS011;8791;50.876;4.342;2023-05-16T01:18:36;17.83;;;2.40;;
17347;SDS011;8791;50.876;4.342;2023-05-16T01:21:09;14.37;;;2.90;;
17347;SDS011;8791;50.876;4.342;2023-05-16T01:23:39;23.53;;;2.80;;
17347;SDS011;8791;50.876;4.342;2023-05-16T01:26:18;15.67;;;2.70;;
17347;SDS011;8791;50.876;4.342;2023-05-16T01:28:48;15.07;;;2.30;;
17347;SDS011;8791;50.876;4.342;2023-05-16T01:31:16;15.27;;;2.47;;
17347;SDS011;8791;50.876;4.342;2023-05-16T01:33:43;21.87;;;3.00;;
17347;SDS011;8791;50.876;4.342;2023-05-16T01:36:12;22.70;;;3.30;;
17347;SDS011;8791;50.876;4.342;2023-05-16T01:38:55;19.83;;;2.07;;
17347;SDS011;8791;50.876;4.342;2023-05-16T01:41:31;26.00;;;3.40;;
17347;SDS011;8791;50.876;4.342;2023-05-16T01:44:09;24.37;;;3.97;;
17347;SDS011;8791;50.876;4.342;2023-05-16T01:46:42;21.93;;;2.60;;
17347;SDS011;8791;50.876;4.342;2023-05-16T01:49:14;20.40;;;2.63;;
17347;SDS011;8791;50.876;4.342;2023-05-16T01:51:47;16.50;;;3.13;;
17347;SDS011;8791;50.876;4.342;2023-05-16T01:54:17;13.40;;;3.03;;
17347;SDS011;8791;50.876;4.342;2023-05-16T01:56:48;20.97;;;2.90;;
17347;SDS011;8791;50.876;4.342;2023-05-16T01:59:18;22.23;;;3.43;;
17347;SDS011;8791;50.876;4.342;2023-05-16T02:01:47;18.77;;;3.53;;
17347;SDS011;8791;50.876;4.342;2023-05-16T02:04:14;12.53;;;2.50;;
17347;SDS011;8791;50.876;4.342;2023-05-16T02:06:41;16.90;;;2.40;;
17347;SDS011;8791;50.876;4.342;2023-05-16T02:09:08;22.10;;;2.90;;
17347;SDS011;8791;50.876;4.342;2023-05-16T02:11:35;14.77;;;2.63;;
17347;SDS011;8791;50.876;4.342;2023-05-16T02:14:03;16.80;;;3.10;;
17347;SDS011;8791;50.876;4.342;2023-05-16T02:16:30;17.60;;;2.80;;
17347;SDS011;8791;50.876;4.342;2023-05-16T02:18:57;30.87;;;3.70;;
17347;SDS011;8791;50.876;4.342;2023-05-16T02:21:24;19.90;;;2.83;;
17347;SDS011;8791;50.876;4.342;2023-05-16T02:23:50;14.97;;;3.10;;
17347;SDS011;8791;50.876;4.342;2023-05-16T02:26:17;14.07;;;2.73;;
17347;SDS011;8791;50.876;4.342;2023-05-16T02:28:44;18.03;;;2.80;;
17347;SDS011;8791;50.876;4.342;2023-05-16T02:31:15;17.30;;;3.20;;
17347;SDS011;8791;50.876;4.342;2023-05-16T02:33:51;18.57;;;2.40;;
17347;SDS011;8791;50.876;4.342;2023-05-16T02:36:18;15.07;;;2.27;;
17347;SDS011;8791;50.876;4.342;2023-05-16T02:38:45;15.53;;;2.53;;
17347;SDS011;8791;50.876;4.342;2023-05-16T02:41:12;16.47;;;3.03;;
17347;SDS011;8791;50.876;4.342;2023-05-16T02:43:39;13.30;;;2.87;;
17347;SDS011;8791;50.876;4.342;2023-05-16T02:46:20;19.63;;;2.80;;
17347;SDS011;8791;50.876;4.342;2023-05-16T02:48:48;26.23;;;3.67;;
17347;SDS011;8791;50.876;4.342;2023-05-16T02:51:14;20.33;;;3.47;;
17347;SDS011;8791;50.876;4.342;2023-05-16T02:53:41;7.97;;;2.53;;
17347;SDS011;8791;50.876;4.342;2023-05-16T02:56:08;18.27;;;3.67;;
17347;SDS011;8791;50.876;4.342;2023-05-16T02:58:35;19.60;;;3.40;;
17347;SDS011;8791;50.876;4.342;2023-05-16T03:01:02;14.53;;;3.13;;
17347;SDS011;8791;50.876;4.342;2023-05-16T03:03:30;22.13;;;3.23;;
17347;SDS011;8791;50.876;4.342;2023-05-16T03:05:59;26.27;;;2.90;;
17347;SDS011;8791;50.876;4.342;2023-05-16T03:08:26;17.67;;;3.03;;
17347;SDS011;8791;50.876;4.342;2023-05-16T03:10:53;21.80;;;3.17;;
17347;SDS011;8791;50.876;4.342;2023-05-16T03:13:20;21.97;;;2.90;;
17347;SDS011;8791;50.876;4.342;2023-05-16T03:15:47;14.80;;;2.97;;
17347;SDS011;8791;50.876;4.342;2023-05-16T03:18:14;26.90;;;3.70;;
17347;SDS011;8791;50.876;4.342;2023-05-16T03:20:42;15.73;;;2.93;;
17347;SDS011;8791;50.876;4.342;2023-05-16T03:23:09;18.60;;;2.73;;
17347;SDS011;8791;50.876;4.342;2023-05-16T03:25:36;16.63;;;3.43;;
17347;SDS011;8791;50.876;4.342;2023-05-16T03:28:03;16.03;;;2.70;;
17347;SDS011;8791;50.876;4.342;2023-05-16T03:30:31;19.07;;;2.53;;
17347;SDS011;8791;50.876;4.342;2023-05-16T03:32:58;15.80;;;3.17;;
17347;SDS011;8791;50.876;4.342;2023-05-16T03:35:25;22.17;;;2.93;;
17347;SDS011;8791;50.876;4.342;2023-05-16T03:37:54;10.37;;;3.13;;
17347;SDS011;8791;50.876;4.342;2023-05-16T03:40:21;16.87;;;2.67;;
17347;SDS011;8791;50.876;4.342;2023-05-16T03:42:48;21.57;;;3.17;;
17347;SDS011;8791;50.876;4.342;2023-05-16T03:45:15;13.37;;;2.67;;
17347;SDS011;8791;50.876;4.342;2023-05-16T03:47:42;19.23;;;3.13;;
17347;SDS011;8791;50.876;4.342;2023-05-16T03:50:09;16.90;;;3.10;;
17347;SDS011;8791;50.876;4.342;2023-05-16T03:52:36;26.00;;;3.27;;
17347;SDS011;8791;50.876;4.342;2023-05-16T03:55:05;20.73;;;3.57;;
17347;SDS011;8791;50.876;4.342;2023-05-16T03:57:35;22.67;;;4.50;;
17347;SDS011;8791;50.876;4.342;2023-05-16T04:00:03;13.83;;;2.83;;
17347;SDS011;8791;50.876;4.342;2023-05-16T04:02:32;15.77;;;3.77;;
17347;SDS011;8791;50.876;4.342;2023-05-16T04:04:59;12.77;;;2.87;;
17347;SDS011;8791;50.876;4.342;2023-05-16T04:07:26;19.07;;;3.13;;
17347;SDS011;8791;50.876;4.342;2023-05-16T04:09:53;17.97;;;2.97;;
17347;SDS011;8791;50.876;4.342;2023-05-16T04:12:21;17.43;;;3.10;;
17347;SDS011;8791;50.876;4.342;2023-05-16T04:14:48;27.67;;;3.73;;
17347;SDS011;8791;50.876;4.342;2023-05-16T04:17:15;21.20;;;2.77;;
17347;SDS011;8791;50.876;4.342;2023-05-16T04:19:42;21.17;;;3.70;;
17347;SDS011;8791;50.876;4.342;2023-05-16T04:22:09;25.07;;;4.00;;
17347;SDS011;8791;50.876;4.342;2023-05-16T04:24:36;17.50;;;3.07;;
17347;SDS011;8791;50.876;4.342;2023-05-16T04:27:03;17.43;;;3.70;;
17347;SDS011;8791;50.876;4.342;2023-05-16T04:29:34;14.57;;;3.20;;
17347;SDS011;8791;50.876;4.342;2023-05-16T04:32:01;15.67;;;3.10;;
17347;SDS011;8791;50.876;4.342;2023-05-16T04:34:28;14.23;;;3.07;;
17347;SDS011;8791;50.876;4.342;2023-05-16T04:36:55;22.07;;;3.10;;
17347;SDS011;8791;50.876;4.342;2023-05-16T04:39:22;9.97;;;2.23;;
17347;SDS011;8791;50.876;4.342;2023-05-16T04:41:49;17.93;;;3.07;;
17347;SDS011;8791;50.876;4.342;2023-05-16T04:44:16;16.67;;;2.83;;
17347;SDS011;8791;50.876;4.342;2023-05-16T04:46:44;14.20;;;2.57;;
17347;SDS011;8791;50.876;4.342;2023-05-16T04:49:11;19.23;;;2.33;;
17347;SDS011;8791;50.876;4.342;2023-05-16T04:51:38;18.63;;;2.53;;
17347;SDS011;8791;50.876;4.342;2023-05-16T04:54:05;11.63;;;2.33;;
17347;SDS011;8791;50.876;4.342;2023-05-16T04:56:32;12.63;;;2.03;;
17347;SDS011;8791;50.876;4.342;2023-05-16T04:59:02;15.40;;;2.53;;
17347;SDS011;8791;50.876;4.342;2023-05-16T05:01:29;9.03;;;1.80;;
17347;SDS011;8791;50.876;4.342;2023-05-16T05:03:57;9.93;;;2.23;;
17347;SDS011;8791;50.876;4.342;2023-05-16T05:06:24;12.37;;;2.27;;
17347;SDS011;8791;50.876;4.342;2023-05-16T05:08:51;14.20;;;2.50;;
17347;SDS011;8791;50.876;4.342;2023-05-16T05:11:19;12.00;;;2.20;;
17347;SDS011;8791;50.876;4.342;2023-05-16T05:13:47;13.67;;;2.30;;
17347;SDS011;8791;50.876;4.342;2023-05-16T05:16:14;14.67;;;2.33;;
17347;SDS011;8791;50.876;4.342;2023-05-16T05:18:40;13.07;;;2.13;;
17347;SDS011;8791;50.876;4.342;2023-05-16T05:21:09;10.97;;;2.23;;
17347;SDS011;8791;50.876;4.342;2023-05-16T05:23:36;12.63;;;2.20;;
17347;SDS011;8791;50.876;4.342;2023-05-16T05:26:03;12.60;;;2.40;;
17347;SDS011;8791;50.876;4.342;2023-05-16T05:28:30;12.90;;;1.90;;
17347;SDS011;8791;50.876;4.342;2023-05-16T05:30:57;14.73;;;2.27;;
17347;SDS011;8791;50.876;4.342;2023-05-16T05:33:25;7.83;;;2.00;;
17347;SDS011;8791;50.876;4.342;2023-05-16T05:35:53;12.17;;;2.10;;
17347;SDS011;8791;50.876;4.342;2023-05-16T05:38:21;17.80;;;2.53;;
17347;SDS011;8791;50.876;4.342;2023-05-16T05:40:48;16.00;;;2.67;;
17347;SDS011;8791;50.876;4.342;2023-05-16T05:43:15;12.10;;;2.10;;
17347;SDS011;8791;50.876;4.342;2023-05-16T05:45:43;11.27;;;2.40;;
17347;SDS011;8791;50.876;4.342;2023-05-16T05:48:10;12.17;;;2.60;;
17347;SDS011;8791;50.876;4.342;2023-05-16T05:50:37;11.73;;;2.77;;
17347;SDS011;8791;50.876;4.342;2023-05-16T05:53:05;25.70;;;2.20;;
17347;SDS011;8791;50.876;4.342;2023-05-16T05:55:33;18.90;;;2.67;;
17347;SDS011;8791;50.876;4.342;2023-05-16T05:58:00;18.83;;;2.53;;
17347;SDS011;8791;50.876;4.342;2023-05-16T06:00:27;12.53;;;2.57;;
17347;SDS011;8791;50.876;4.342;2023-05-16T06:02:54;11.93;;;2.20;;
17347;SDS011;8791;50.876;4.342;2023-05-16T06:05:21;14.83;;;2.57;;
17347;SDS011;8791;50.876;4.342;2023-05-16T06:07:49;8.87;;;1.77;;
17347;SDS011;8791;50.876;4.342;2023-05-16T06:10:16;11.07;;;2.20;;
17347;SDS011;8791;50.876;4.342;2023-05-16T06:12:44;14.50;;;2.43;;
17347;SDS011;8791;50.876;4.342;2023-05-16T06:15:11;11.63;;;2.07;;
17347;SDS011;8791;50.876;4.342;2023-05-16T06:17:38;9.37;;;2.00;;
17347;SDS011;8791;50.876;4.342;2023-05-16T06:20:06;12.77;;;2.07;;
17347;SDS011;8791;50.876;4.342;2023-05-16T06:22:34;17.60;;;2.63;;
17347;SDS011;8791;50.876;4.342;2023-05-16T06:25:01;10.63;;;2.47;;
17347;SDS011;8791;50.876;4.342;2023-05-16T06:27:28;12.70;;;2.23;;
17347;SDS011;8791;50.876;4.342;2023-05-16T06:29:56;15.73;;;2.10;;
17347;SDS011;8791;50.876;4.342;2023-05-16T06:32:23;13.07;;;2.30;;
17347;SDS011;8791;50.876;4.342;2023-05-16T06:34:51;9.00;;;1.93;;
17347;SDS011;8791;50.876;4.342;2023-05-16T06:37:18;11.13;;;1.97;;
17347;SDS011;8791;50.876;4.342;2023-05-16T06:39:45;14.07;;;2.40;;
17347;SDS011;8791;50.876;4.342;2023-05-16T06:42:12;13.87;;;2.57;;
17347;SDS011;8791;50.876;4.342;2023-05-16T06:44:39;16.10;;;2.40;;
17347;SDS011;8791;50.876;4.342;2023-05-16T06:47:08;16.60;;;2.83;;
17347;SDS011;8791;50.876;4.342;2023-05-16T06:49:35;10.43;;;1.80;;
17347;SDS011;8791;50.876;4.342;2023-05-16T06:52:02;16.30;;;2.87;;
17347;SDS011;8791;50.876;4.342;2023-05-16T06:54:29;16.10;;;2.17;;
17347;SDS011;8791;50.876;4.342;2023-05-16T06:56:56;11.13;;;2.43;;
17347;SDS011;8791;50.876;4.342;2023-05-16T06:59:23;15.93;;;2.40;;
17347;SDS011;8791;50.876;4.342;2023-05-16T07:01:50;17.63;;;2.50;;
17347;SDS011;8791;50.876;4.342;2023-05-16T07:04:19;16.13;;;2.33;;
17347;SDS011;8791;50.876;4.342;2023-05-16T07:06:46;8.80;;;2.03;;
17347;SDS011;8791;50.876;4.342;2023-05-16T07:09:13;8.87;;;2.03;;
17347;SDS011;8791;50.876;4.342;2023-05-16T07:11:40;8.73;;;1.70;;
17347;SDS011;8791;50.876;4.342;2023-05-16T07:14:07;12.57;;;1.90;;
17347;SDS011;8791;50.876;4.342;2023-05-16T07:16:33;11.47;;;1.90;;
17347;SDS011;8791;50.876;4.342;2023-05-16T07:19:00;17.30;;;2.17;;
17347;SDS011;8791;50.876;4.342;2023-05-16T07:21:29;11.00;;;1.63;;
17347;SDS011;8791;50.876;4.342;2023-05-16T07:23:56;7.80;;;1.60;;
17347;SDS011;8791;50.876;4.342;2023-05-16T07:26:22;11.53;;;1.97;;
17347;SDS011;8791;50.876;4.342;2023-05-16T07:28:50;12.23;;;1.80;;
17347;SDS011;8791;50.876;4.342;2023-05-16T07:31:18;6.70;;;1.50;;
17347;SDS011;8791;50.876;4.342;2023-05-16T07:33:45;12.57;;;1.93;;
17347;SDS011;8791;50.876;4.342;2023-05-16T07:36:13;13.60;;;2.13;;
17347;SDS011;8791;50.876;4.342;2023-05-16T07:38:41;7.93;;;1.30;;
17347;SDS011;8791;50.876;4.342;2023-05-16T07:41:08;5.73;;;1.37;;
17347;SDS011;8791;50.876;4.342;2023-05-16T07:43:35;7.93;;;1.33;;
17347;SDS011;8791;50.876;4.342;2023-05-16T07:46:02;11.40;;;1.90;;
17347;SDS011;8791;50.876;4.342;2023-05-16T07:48:30;8.53;;;1.47;;
17347;SDS011;8791;50.876;4.342;2023-05-16T07:50:57;5.57;;;1.43;;
17347;SDS011;8791;50.876;4.342;2023-05-16T07:53:23;7.93;;;1.20;;
17347;SDS011;8791;50.876;4.342;2023-05-16T07:55:52;11.03;;;1.53;;
17347;SDS011;8791;50.876;4.342;2023-05-16T07:58:19;8.27;;;1.20;;
17347;SDS011;8791;50.876;4.342;2023-05-16T08:00:46;8.30;;;1.80;;
17347;SDS011;8791;50.876;4.342;2023-05-16T08:03:14;5.77;;;1.43;;
17347;SDS011;8791;50.876;4.342;2023-05-16T08:05:41;9.40;;;1.50;;
17347;SDS011;8791;50.876;4.342;2023-05-16T08:08:09;6.10;;;1.53;;
17347;SDS011;8791;50.876;4.342;2023-05-16T08:10:36;6.30;;;1.13;;
17347;SDS011;8791;50.876;4.342;2023-05-16T08:13:04;6.37;;;1.60;;
17347;SDS011;8791;50.876;4.342;2023-05-16T08:15:31;12.90;;;1.50;;
17347;SDS011;8791;50.876;4.342;2023-05-16T08:17:58;9.63;;;1.43;;
17347;SDS011;8791;50.876;4.342;2023-05-16T08:20:25;6.20;;;1.47;;
17347;SDS011;8791;50.876;4.342;2023-05-16T08:22:52;10.37;;;1.67;;
17347;SDS011;8791;50.876;4.342;2023-05-16T08:25:20;11.27;;;1.77;;
17347;SDS011;8791;50.876;4.342;2023-05-16T08:27:47;7.50;;;1.40;;
17347;SDS011;8791;50.876;4.342;2023-05-16T08:30:17;8.33;;;1.33;;
17347;SDS011;8791;50.876;4.342;2023-05-16T08:32:44;6.70;;;1.30;;
17347;SDS011;8791;50.876;4.342;2023-05-16T08:35:11;7.50;;;1.90;;
17347;SDS011;8791;50.876;4.342;2023-05-16T08:37:38;4.43;;;1.53;;
17347;SDS011;8791;50.876;4.342;2023-05-16T08:40:06;11.27;;;1.50;;
17347;SDS011;8791;50.876;4.342;2023-05-16T08:42:35;5.87;;;1.43;;
17347;SDS011;8791;50.876;4.342;2023-05-16T08:45:03;15.20;;;1.73;;
17347;SDS011;8791;50.876;4.342;2023-05-16T08:47:33;4.93;;;1.33;;
17347;SDS011;8791;50.876;4.342;2023-05-16T08:50:02;2.57;;;1.33;;
17347;SDS011;8791;50.876;4.342;2023-05-16T08:52:29;10.00;;;1.67;;
17347;SDS011;8791;50.876;4.342;2023-05-16T08:54:58;5.90;;;1.33;;
17347;SDS011;8791;50.876;4.342;2023-05-16T08:57:29;9.00;;;1.50;;
17347;SDS011;8791;50.876;4.342;2023-05-16T08:59:56;9.00;;;1.37;;
17347;SDS011;8791;50.876;4.342;2023-05-16T09:02:26;9.30;;;1.43;;
17347;SDS011;8791;50.876;4.342;2023-05-16T09:04:54;7.60;;;1.60;;
17347;SDS011;8791;50.876;4.342;2023-05-16T09:07:23;8.37;;;1.30;;
17347;SDS011;8791;50.876;4.342;2023-05-16T09:09:50;6.40;;;1.57;;
17347;SDS011;8791;50.876;4.342;2023-05-16T09:12:18;6.90;;;1.23;;
17347;SDS011;8791;50.876;4.342;2023-05-16T09:14:46;4.30;;;1.20;;
17347;SDS011;8791;50.876;4.342;2023-05-16T09:17:13;4.47;;;1.47;;
17347;SDS011;8791;50.876;4.342;2023-05-16T09:19:41;8.93;;;1.37;;
17347;SDS011;8791;50.876;4.342;2023-05-16T09:22:10;4.67;;;1.30;;
17347;SDS011;8791;50.876;4.342;2023-05-16T09:24:38;5.70;;;1.13;;
17347;SDS011;8791;50.876;4.342;2023-05-16T09:27:09;9.67;;;1.37;;
17347;SDS011;8791;50.876;4.342;2023-05-16T09:29:39;4.53;;;1.03;;
17347;SDS011;8791;50.876;4.342;2023-05-16T09:32:10;5.37;;;1.80;;
17347;SDS011;8791;50.876;4.342;2023-05-16T09:34:38;12.30;;;1.40;;
17347;SDS011;8791;50.876;4.342;2023-05-16T09:37:11;6.90;;;1.60;;
17347;SDS011;8791;50.876;4.342;2023-05-16T09:39:38;7.50;;;1.10;;
17347;SDS011;8791;50.876;4.342;2023-05-16T09:42:06;3.17;;;1.10;;
17347;SDS011;8791;50.876;4.342;2023-05-16T09:44:36;7.57;;;1.43;;
17347;SDS011;8791;50.876;4.342;2023-05-16T09:47:04;11.87;;;1.40;;
17347;SDS011;8791;50.876;4.342;2023-05-16T09:49:31;6.70;;;1.30;;
17347;SDS011;8791;50.876;4.342;2023-05-16T09:51:58;7.30;;;1.47;;
17347;SDS011;8791;50.876;4.342;2023-05-16T09:54:30;8.67;;;1.10;;
17347;SDS011;8791;50.876;4.342;2023-05-16T09:56:58;4.17;;;1.23;;
17347;SDS011;8791;50.876;4.342;2023-05-16T09:59:27;4.80;;;1.13;;
17347;SDS011;8791;50.876;4.342;2023-05-16T10:01:56;7.13;;;1.40;;
17347;SDS011;8791;50.876;4.342;2023-05-16T10:04:24;9.10;;;1.40;;
17347;SDS011;8791;50.876;4.342;2023-05-16T10:06:51;9.60;;;1.20;;
17347;SDS011;8791;50.876;4.342;2023-05-16T10:09:21;6.53;;;1.07;;
17347;SDS011;8791;50.876;4.342;2023-05-16T10:11:50;4.63;;;1.20;;
17347;SDS011;8791;50.876;4.342;2023-05-16T10:14:18;6.17;;;1.20;;
17347;SDS011;8791;50.876;4.342;2023-05-16T10:16:46;4.67;;;1.27;;
17347;SDS011;8791;50.876;4.342;2023-05-16T10:19:14;4.93;;;1.13;;
17347;SDS011;8791;50.876;4.342;2023-05-16T10:21:44;6.00;;;0.83;;
17347;SDS011;8791;50.876;4.342;2023-05-16T10:24:17;10.50;;;1.33;;
17347;SDS011;8791;50.876;4.342;2023-05-16T10:26:51;1.83;;;0.80;;
17347;SDS011;8791;50.876;4.342;2023-05-16T10:29:18;5.83;;;1.07;;
17347;SDS011;8791;50.876;4.342;2023-05-16T10:31:47;6.87;;;0.90;;
17347;SDS011;8791;50.876;4.342;2023-05-16T10:34:14;3.00;;;1.00;;
17347;SDS011;8791;50.876;4.342;2023-05-16T10:36:42;5.03;;;1.10;;
17347;SDS011;8791;50.876;4.342;2023-05-16T10:39:09;3.00;;;1.03;;
17347;SDS011;8791;50.876;4.342;2023-05-16T10:41:37;5.83;;;1.13;;
17347;SDS011;8791;50.876;4.342;2023-05-16T10:44:08;2.93;;;1.00;;
17347;SDS011;8791;50.876;4.342;2023-05-16T10:46:40;9.27;;;1.37;;
17347;SDS011;8791;50.876;4.342;2023-05-16T10:49:20;5.13;;;1.20;;
17347;SDS011;8791;50.876;4.342;2023-05-16T10:52:04;4.47;;;1.03;;
17347;SDS011;8791;50.876;4.342;2023-05-16T10:54:34;6.53;;;1.07;;
17347;SDS011;8791;50.876;4.342;2023-05-16T10:57:05;7.33;;;1.13;;
17347;SDS011;8791;50.876;4.342;2023-05-16T10:59:40;8.80;;;1.33;;
17347;SDS011;8791;50.876;4.342;2023-05-16T11:04:58;5.17;;;1.20;;
17347;SDS011;8791;50.876;4.342;2023-05-16T11:07:30;5.57;;;1.30;;
17347;SDS011;8791;50.876;4.342;2023-05-16T11:10:03;3.90;;;1.10;;
17347;SDS011;8791;50.876;4.342;2023-05-16T11:15:19;3.27;;;1.00;;
17347;SDS011;8791;50.876;4.342;2023-05-16T11:17:50;2.10;;;0.90;;
17347;SDS011;8791;50.876;4.342;2023-05-16T11:20:29;11.47;;;1.47;;
17347;SDS011;8791;50.876;4.342;2023-05-16T11:23:18;6.90;;;0.97;;
17347;SDS011;8791;50.876;4.342;2023-05-16T11:25:51;5.53;;;1.00;;
17347;SDS011;8791;50.876;4.342;2023-05-16T11:28:20;5.80;;;1.30;;
17347;SDS011;8791;50.876;4.342;2023-05-16T11:30:51;5.67;;;1.10;;
17347;SDS011;8791;50.876;4.342;2023-05-16T11:33:20;6.30;;;1.10;;
17347;SDS011;8791;50.876;4.342;2023-05-16T11:36:01;3.80;;;1.00;;
17347;SDS011;8791;50.876;4.342;2023-05-16T11:38:29;7.77;;;1.30;;
17347;SDS011;8791;50.876;4.342;2023-05-16T11:41:00;4.43;;;1.30;;
17347;SDS011;8791;50.876;4.342;2023-05-16T11:43:38;4.57;;;1.30;;
17347;SDS011;8791;50.876;4.342;2023-05-16T11:46:09;4.43;;;1.30;;
17347;SDS011;8791;50.876;4.342;2023-05-16T11:48:37;6.10;;;1.00;;
17347;SDS011;8791;50.876;4.342;2023-05-16T11:51:04;7.47;;;1.20;;
17347;SDS011;8791;50.876;4.342;2023-05-16T11:53:31;6.70;;;1.07;;
17347;SDS011;8791;50.876;4.342;2023-05-16T11:55:59;5.40;;;1.10;;
17347;SDS011;8791;50.876;4.342;2023-05-16T11:58:27;4.20;;;1.17;;
17347;SDS011;8791;50.876;4.342;2023-05-16T12:00:54;5.00;;;1.20;;
17347;SDS011;8791;50.876;4.342;2023-05-16T12:03:22;5.43;;;1.50;;
17347;SDS011;8791;50.876;4.342;2023-05-16T12:05:49;5.63;;;1.30;;
17347;SDS011;8791;50.876;4.342;2023-05-16T12:08:18;3.00;;;1.00;;
17347;SDS011;8791;50.876;4.342;2023-05-16T12:10:47;8.60;;;1.03;;
17347;SDS011;8791;50.876;4.342;2023-05-16T12:13:15;6.43;;;1.30;;
17347;SDS011;8791;50.876;4.342;2023-05-16T12:15:43;6.93;;;1.43;;
17347;SDS011;8791;50.876;4.342;2023-05-16T12:18:10;9.17;;;1.30;;
17347;SDS011;8791;50.876;4.342;2023-05-16T12:20:39;3.50;;;0.80;;
17347;SDS011;8791;50.876;4.342;2023-05-16T12:23:09;6.77;;;1.20;;
17347;SDS011;8791;50.876;4.342;2023-05-16T12:25:36;5.47;;;1.43;;
17347;SDS011;8791;50.876;4.342;2023-05-16T12:28:08;10.07;;;1.20;;
17347;SDS011;8791;50.876;4.342;2023-05-16T12:30:39;6.70;;;1.00;;
17347;SDS011;8791;50.876;4.342;2023-05-16T12:33:07;2.93;;;1.00;;
17347;SDS011;8791;50.876;4.342;2023-05-16T12:35:36;1.93;;;0.80;;
17347;SDS011;8791;50.876;4.342;2023-05-16T12:38:06;4.33;;;1.00;;
17347;SDS011;8791;50.876;4.342;2023-05-16T12:40:35;2.40;;;0.90;;
17347;SDS011;8791;50.876;4.342;2023-05-16T12:43:11;5.27;;;0.93;;
17347;SDS011;8791;50.876;4.342;2023-05-16T12:45:39;8.40;;;1.30;;
17347;SDS011;8791;50.876;4.342;2023-05-16T12:48:10;1.93;;;0.90;;
17347;SDS011;8791;50.876;4.342;2023-05-16T12:50:41;5.00;;;1.00;;
17347;SDS011;8791;50.876;4.342;2023-05-16T12:53:11;2.43;;;0.90;;
17347;SDS011;8791;50.876;4.342;2023-05-16T12:55:39;3.70;;;0.80;;
17347;SDS011;8791;50.876;4.342;2023-05-16T12:58:06;1.87;;;0.60;;
17347;SDS011;8791;50.876;4.342;2023-05-16T13:00:33;5.37;;;1.00;;
17347;SDS011;8791;50.876;4.342;2023-05-16T13:03:01;6.40;;;1.00;;
17347;SDS011;8791;50.876;4.342;2023-05-16T13:05:29;5.63;;;1.80;;
17347;SDS011;8791;50.876;4.342;2023-05-16T13:07:58;4.63;;;0.93;;
17347;SDS011;8791;50.876;4.342;2023-05-16T13:10:25;5.10;;;1.60;;
17347;SDS011;8791;50.876;4.342;2023-05-16T13:12:52;6.57;;;1.10;;
17347;SDS011;8791;50.876;4.342;2023-05-16T13:15:22;4.50;;;1.23;;
17347;SDS011;8791;50.876;4.342;2023-05-16T13:17:49;4.83;;;0.90;;
17347;SDS011;8791;50.876;4.342;2023-05-16T13:20:16;2.50;;;1.10;;
17347;SDS011;8791;50.876;4.342;2023-05-16T13:22:44;3.90;;;0.90;;
17347;SDS011;8791;50.876;4.342;2023-05-16T13:25:12;7.23;;;1.47;;
17347;SDS011;8791;50.876;4.342;2023-05-16T13:27:39;5.47;;;1.03;;
17347;SDS011;8791;50.876;4.342;2023-05-16T13:30:06;2.77;;;1.37;;
17347;SDS011;8791;50.876;4.342;2023-05-16T13:32:34;4.73;;;1.10;;
17347;SDS011;8791;50.876;4.342;2023-05-16T13:35:01;3.37;;;0.90;;
17347;SDS011;8791;50.876;4.342;2023-05-16T13:37:28;3.03;;;1.00;;
17347;SDS011;8791;50.876;4.342;2023-05-16T13:39:55;5.93;;;1.00;;
17347;SDS011;8791;50.876;4.342;2023-05-16T13:42:24;4.43;;;1.20;;
17347;SDS011;8791;50.876;4.342;2023-05-16T13:44:51;5.90;;;1.10;;
17347;SDS011;8791;50.876;4.342;2023-05-16T13:47:18;2.47;;;1.20;;
17347;SDS011;8791;50.876;4.342;2023-05-16T13:49:44;3.13;;;0.80;;
17347;SDS011;8791;50.876;4.342;2023-05-16T13:52:12;3.77;;;1.00;;
17347;SDS011;8791;50.876;4.342;2023-05-16T13:54:40;4.57;;;1.00;;
17347;SDS011;8791;50.876;4.342;2023-05-16T13:57:07;2.57;;;1.20;;
17347;SDS011;8791;50.876;4.342;2023-05-16T13:59:37;3.33;;;1.20;;
17347;SDS011;8791;50.876;4.342;2023-05-16T14:02:04;4.17;;;1.07;;
17347;SDS011;8791;50.876;4.342;2023-05-16T14:04:31;5.87;;;1.30;;
17347;SDS011;8791;50.876;4.342;2023-05-16T14:06:57;3.00;;;0.80;;
17347;SDS011;8791;50.876;4.342;2023-05-16T14:09:24;6.17;;;0.97;;
17347;SDS011;8791;50.876;4.342;2023-05-16T14:11:51;3.20;;;1.07;;
17347;SDS011;8791;50.876;4.342;2023-05-16T14:14:18;6.03;;;1.47;;
17347;SDS011;8791;50.876;4.342;2023-05-16T14:16:46;6.47;;;1.40;;
17347;SDS011;8791;50.876;4.342;2023-05-16T14:19:13;2.40;;;0.80;;
17347;SDS011;8791;50.876;4.342;2023-05-16T14:21:40;7.73;;;1.40;;
17347;SDS011;8791;50.876;4.342;2023-05-16T14:24:07;5.53;;;1.10;;
17347;SDS011;8791;50.876;4.342;2023-05-16T14:26:34;4.70;;;1.20;;
17347;SDS011;8791;50.876;4.342;2023-05-16T14:29:01;3.33;;;1.08;;
17347;SDS011;8791;50.876;4.342;2023-05-16T14:31:28;1.83;;;0.82;;
17347;SDS011;8791;50.876;4.342;2023-05-16T14:33:57;3.42;;;1.25;;
17347;SDS011;8791;50.876;4.342;2023-05-16T14:36:24;2.95;;;0.98;;
17347;SDS011;8791;50.876;4.342;2023-05-16T14:38:51;7.32;;;1.02;;
17347;SDS011;8791;50.876;4.342;2023-05-16T14:41:18;2.70;;;0.80;;
17347;SDS011;8791;50.876;4.342;2023-05-16T14:43:45;6.30;;;0.90;;
17347;SDS011;8791;50.876;4.342;2023-05-16T14:46:12;8.23;;;1.10;;
17347;SDS011;8791;50.876;4.342;2023-05-16T14:48:39;4.05;;;0.95;;
17347;SDS011;8791;50.876;4.342;2023-05-16T14:51:07;5.32;;;1.02;;
17347;SDS011;8791;50.876;4.342;2023-05-16T14:53:35;6.85;;;0.90;;
17347;SDS011;8791;50.876;4.342;2023-05-16T14:56:02;3.25;;;0.80;;
17347;SDS011;8791;50.876;4.342;2023-05-16T14:58:29;4.43;;;1.10;;
17347;SDS011;8791;50.876;4.342;2023-05-16T15:00:56;5.97;;;1.35;;
17347;SDS011;8791;50.876;4.342;2023-05-16T15:03:23;3.43;;;2.00;;
17347;SDS011;8791;50.876;4.342;2023-05-16T15:05:50;5.15;;;1.00;;
17347;SDS011;8791;50.876;4.342;2023-05-16T15:08:20;3.03;;;1.15;;